Time;durP1;ratioP1;P1;durP2;ratioP2;P2;SDS_P1;SDS_P2;PMS_P1;PMS_P2;Temp;Humidity;BMP_temperature;BMP_pressure;BME280_temperature;BME280_humidity;BME280_pressure;Samples;Min_cycle;Max_cycle;Signal;HPM_P1;HPM_P2
2021/03/08 00:00:20;;;;;;;;;;;;;;;21.37;30.48;102254.00;3110063;28;114411;-57
2021/03/08 00:01:51;;;;;;;;;;;;;;;21.35;30.32;102251.47;3100878;28;113761;-58
2021/03/08 00:03:23;;;;;;;;;;;;;;;21.33;30.42;102256.53;3100692;28;114097;-57
2021/03/08 00:04:54;;;;;;;;;;;;;;;21.31;30.43;102258.78;3095852;28;113898;-58
2021/03/08 00:06:25;;;;;;;;;;;;;;;21.28;30.31;102256.53;3117375;27;113889;-58
2021/03/08 00:07:57;;;;;;;;;;;;;;;21.28;30.71;102259.34;3123157;27;113826;-58
2021/03/08 00:09:28;;;;;;;;;;;;;;;21.26;30.39;102253.16;3106674;28;114275;-58
2021/03/08 00:10:59;;;;;;;;;;;;;;;21.24;30.76;102247.00;3119413;27;113929;-58
2021/03/08 00:12:31;;;;;;;;;;;;;;;21.21;30.66;102245.56;3107838;28;113855;-58
2021/03/08 00:14:02;;;;;;;;;;;;;;;21.18;30.58;102246.16;3105874;28;114277;-57
2021/03/08 00:15:35;;;;;;;;;;;;;;;21.17;30.76;102244.44;3115488;27;113861;-57
2021/03/08 00:17:06;;;;;;;;;;;;;;;21.16;30.57;102241.94;3127476;27;114078;-58
2021/03/08 00:18:37;;;;;;;;;;;;;;;21.14;30.72;102244.19;3123282;27;115442;-58
2021/03/08 00:20:09;;;;;;;;;;;;;;;21.12;30.56;102244.41;3105550;28;115232;-58
2021/03/08 00:21:40;;;;;;;;;;;;;;;21.12;30.85;102246.41;3109397;27;115128;-58
2021/03/08 00:23:11;;;;;;;;;;;;;;;21.09;30.83;102244.16;3109236;28;114965;-60
2021/03/08 00:24:43;;;;;;;;;;;;;;;21.08;30.79;102246.09;3103906;28;114879;-57
2021/03/08 00:26:14;;;;;;;;;;;;;;;21.06;30.98;102241.91;3115941;27;115057;-57
2021/03/08 00:27:45;;;;;;;;;;;;;;;21.03;31.03;102251.72;3120377;27;115361;-58
2021/03/08 00:29:17;;;;;;;;;;;;;;;21.02;31.28;102246.41;3119044;27;115108;-58
2021/03/08 00:30:48;;;;;;;;;;;;;;;21.00;31.12;102243.88;3123391;27;115427;-58
2021/03/08 00:32:19;;;;;;;;;;;;;;;21.00;31.18;102254.25;3122433;27;114593;-58
2021/03/08 00:33:50;;;;;;;;;;;;;;;20.95;31.22;102238.22;3118298;27;115116;-58
2021/03/08 00:35:22;;;;;;;;;;;;;;;20.95;31.23;102240.19;3103811;28;114757;-57
2021/03/08 00:36:53;;;;;;;;;;;;;;;20.94;31.30;102238.53;3114071;27;114385;-58
2021/03/08 00:38:24;;;;;;;;;;;;;;;20.91;31.28;102244.69;3123903;27;115002;-58
2021/03/08 00:39:56;;;;;;;;;;;;;;;20.88;31.09;102242.44;3107353;28;117647;-58
2021/03/08 00:41:28;;;;;;;;;;;;;;;20.86;31.05;102235.13;3117967;27;115369;-58
2021/03/08 00:42:59;;;;;;;;;;;;;;;20.87;31.19;102244.41;3120760;27;115827;-57
2021/03/08 00:44:30;;;;;;;;;;;;;;;20.83;31.50;102237.66;3107189;28;115755;-58
2021/03/08 00:46:01;;;;;;;;;;;;;;;20.82;31.51;102231.22;3114695;27;115886;-57
2021/03/08 00:47:32;;;;;;;;;;;;;;;20.81;31.17;102234.28;3121216;27;115123;-58
2021/03/08 00:49:04;;;;;;;;;;;;;;;20.78;31.57;102226.44;3121158;27;118280;-57
2021/03/08 00:50:35;;;;;;;;;;;;;;;20.77;31.25;102236.81;3106954;28;115690;-58
2021/03/08 00:52:06;;;;;;;;;;;;;;;20.75;31.54;102230.66;3105393;28;115702;-58
2021/03/08 00:53:37;;;;;;;;;;;;;;;20.73;31.70;102243.28;3117836;27;115737;-56
2021/03/08 00:55:09;;;;;;;;;;;;;;;20.72;31.75;102242.41;3120596;27;115935;-56
2021/03/08 00:56:41;;;;;;;;;;;;;;;20.68;31.67;102241.28;3106963;28;115914;-57
2021/03/08 00:58:12;;;;;;;;;;;;;;;20.70;31.64;102238.22;3118110;27;115853;-56
2021/03/08 00:59:43;;;;;;;;;;;;;;;20.67;31.58;102242.41;3111830;28;116202;-57
2021/03/08 01:01:14;;;;;;;;;;;;;;;20.66;31.67;102234.28;3114572;27;113915;-57
2021/03/08 01:02:45;;;;;;;;;;;;;;;20.64;31.50;102239.31;3099282;28;113768;-56
2021/03/08 01:04:17;;;;;;;;;;;;;;;20.62;31.49;102241.56;3117202;27;113952;-57
2021/03/08 01:05:48;;;;;;;;;;;;;;;20.61;31.72;102240.72;3123042;27;113985;-57
2021/03/08 01:07:19;;;;;;;;;;;;;;;20.59;31.87;102228.91;3106690;28;114378;-56
2021/03/08 01:08:51;;;;;;;;;;;;;;;20.55;31.63;102224.97;3117869;27;113864;-58
2021/03/08 01:10:25;;;;;;;;;;;;;;;20.54;31.51;102228.91;3118213;27;113756;-56
2021/03/08 01:11:57;;;;;;;;;;;;;;;20.55;31.54;102241.81;3107908;28;113776;-57
2021/03/08 01:13:28;;;;;;;;;;;;;;;20.53;31.61;102238.47;3118334;27;113846;-56
2021/03/08 01:14:59;;;;;;;;;;;;;;;20.50;31.79;102229.72;3120998;27;113810;-57
2021/03/08 01:16:30;;;;;;;;;;;;;;;20.48;31.68;102227.22;3096893;28;113797;-57
2021/03/08 01:18:02;;;;;;;;;;;;;;;20.48;31.90;102235.66;3114304;27;113909;-56
2021/03/08 01:19:34;;;;;;;;;;;;;;;20.45;31.78;102235.34;3123260;27;114062;-57
2021/03/08 01:21:05;;;;;;;;;;;;;;;20.44;31.77;102228.06;3123476;27;113742;-57
2021/03/08 01:22:36;;;;;;;;;;;;;;;20.40;31.94;102231.41;3109908;28;113799;-57
2021/03/08 01:24:08;;;;;;;;;;;;;;;20.40;31.74;102228.59;3111469;28;115416;-56
2021/03/08 01:25:40;;;;;;;;;;;;;;;20.38;31.72;102230.84;3120109;27;115439;-56
2021/03/08 01:27:11;;;;;;;;;;;;;;;20.37;31.86;102228.31;3110788;28;115060;-56
2021/03/08 01:28:44;;;;;;;;;;;;;;;20.35;32.00;102227.75;3118662;27;115181;-57
2021/03/08 01:30:17;;;;;;;;;;;;;;;20.32;32.12;102229.13;3111624;28;115115;-57
2021/03/08 01:31:48;;;;;;;;;;;;;;;20.32;31.79;102231.94;3116525;27;115059;-57
2021/03/08 01:33:19;;;;;;;;;;;;;;;20.31;31.83;102229.41;3119633;27;115213;-56
2021/03/08 01:34:50;;;;;;;;;;;;;;;20.29;31.94;102228.81;3124183;27;115231;-57
2021/03/08 01:36:22;;;;;;;;;;;;;;;20.27;31.87;102222.63;3120830;27;115103;-56
2021/03/08 01:37:53;;;;;;;;;;;;;;;20.26;32.14;102215.34;3124498;27;115241;-56
2021/03/08 01:39:24;;;;;;;;;;;;;;;20.26;32.05;102223.75;3110934;28;115051;-57
2021/03/08 01:40:55;;;;;;;;;;;;;;;20.25;31.98;102219.25;3106046;28;115133;-57
2021/03/08 01:42:27;;;;;;;;;;;;;;;20.22;32.00;102222.59;3118366;27;115064;-57
2021/03/08 01:43:59;;;;;;;;;;;;;;;20.21;31.98;102221.78;3126517;27;114994;-57
2021/03/08 01:45:30;;;;;;;;;;;;;;;20.19;31.89;102226.81;3124873;27;115652;-56
2021/03/08 01:47:01;;;;;;;;;;;;;;;20.16;31.98;102227.38;3110283;28;115709;-56
2021/03/08 01:48:32;;;;;;;;;;;;;;;20.15;32.03;102224.84;3119954;27;115799;-56
2021/03/08 01:50:05;;;;;;;;;;;;;;;20.16;31.92;102226.53;3123879;27;115861;-57
2021/03/08 01:51:36;;;;;;;;;;;;;;;20.13;32.01;102227.91;3123708;27;114506;-56
2021/03/08 01:53:08;;;;;;;;;;;;;;;20.12;32.20;102225.41;3124421;27;115655;-57
2021/03/08 01:54:40;;;;;;;;;;;;;;;20.10;32.06;102216.38;3124696;27;116014;-57
2021/03/08 01:56:11;;;;;;;;;;;;;;;20.12;31.98;102225.41;3111121;28;116006;-56
2021/03/08 01:57:42;;;;;;;;;;;;;;;20.09;32.11;102220.31;3117319;27;115811;-56
2021/03/08 01:59:23;;;;;;;;;;;;;;;20.05;32.20;102214.41;3122231;27;115657;-57
2021/03/08 02:01:04;;;;;;;;;;;;;;;20.05;32.13;102210.75;3122399;27;114578;-56
2021/03/08 02:02:35;;;;;;;;;;;;;;;20.02;32.08;102220.56;3122055;27;116063;-56
2021/03/08 02:04:07;;;;;;;;;;;;;;;20.01;32.27;102221.69;3122415;27;115813;-56
2021/03/08 02:05:39;;;;;;;;;;;;;;;20.01;32.22;102218.03;3125688;27;115078;-56
2021/03/08 02:07:11;;;;;;;;;;;;;;;19.99;32.33;102216.34;3109478;28;114148;-57
2021/03/08 02:08:42;;;;;;;;;;;;;;;19.98;32.25;102213.84;3114305;27;113791;-56
2021/03/08 02:10:13;;;;;;;;;;;;;;;19.96;32.05;102214.09;3124112;27;113946;-56
2021/03/08 02:11:50;;;;;;;;;;;;;;;19.94;32.03;102216.31;3110828;28;115598;-56
2021/03/08 02:13:22;;;;;;;;;;;;;;;19.93;32.23;102217.47;3107763;28;113856;-57
2021/03/08 02:15:03;;;;;;;;;;;;;;;19.91;32.21;102219.69;3106964;28;113871;-56
2021/03/08 02:16:42;;;;;;;;;;;;;;;19.91;32.36;102208.47;3121726;27;113809;-57
2021/03/08 02:18:22;;;;;;;;;;;;;;;19.92;31.97;102212.13;3109831;28;113786;-57
2021/03/08 02:19:54;;;;;;;;;;;;;;;19.87;32.30;102203.66;3119808;27;113811;-56
2021/03/08 02:21:35;;;;;;;;;;;;;;;19.86;32.40;102207.59;3105562;28;114119;-56
2021/03/08 02:23:09;;;;;;;;;;;;;;;19.84;32.25;102205.06;3116312;27;113854;-56
2021/03/08 02:24:41;;;;;;;;;;;;;;;19.83;32.23;102199.72;3122741;27;113954;-56
2021/03/08 02:26:22;;;;;;;;;;;;;;;19.82;32.39;102198.88;3124158;27;113798;-56
2021/03/08 02:28:03;;;;;;;;;;;;;;;19.81;32.46;102202.78;3114674;28;113882;-56
2021/03/08 02:29:56;;;;;;;;;;;;;;;19.81;32.42;102197.19;3106457;28;114257;-56
2021/03/08 02:31:28;;;;;;;;;;;;;;;19.78;32.46;102192.13;3121418;27;115311;-57
2021/03/08 02:33:01;;;;;;;;;;;;;;;19.76;32.41;102194.34;3110982;28;115165;-57
2021/03/08 02:34:35;;;;;;;;;;;;;;;19.75;32.41;102198.28;3118443;27;115195;-56
2021/03/08 02:36:08;;;;;;;;;;;;;;;19.73;32.52;102189.31;3107931;28;114229;-56
2021/03/08 02:37:44;;;;;;;;;;;;;;;19.73;32.33;102192.09;3104986;28;115202;-57
2021/03/08 02:39:18;;;;;;;;;;;;;;;19.72;32.26;102190.41;3119250;27;115272;-56
2021/03/08 02:41:00;;;;;;;;;;;;;;;19.71;32.56;102190.69;3123390;27;115136;-57
2021/03/08 02:42:33;;;;;;;;;;;;;;;19.71;32.60;102194.34;3122265;27;115009;-56
2021/03/08 02:44:08;;;;;;;;;;;;;;;19.69;32.46;102193.78;3118803;27;115409;-56
2021/03/08 02:45:41;;;;;;;;;;;;;;;19.70;32.51;102192.66;3123845;27;115107;-56
2021/03/08 02:47:15;;;;;;;;;;;;;;;19.68;32.40;102188.44;3110840;28;115234;-56
2021/03/08 02:48:46;;;;;;;;;;;;;;;19.64;32.56;102185.31;3106771;28;115207;-56
2021/03/08 02:50:19;;;;;;;;;;;;;;;19.61;32.79;102180.28;3108997;28;115216;-57
2021/03/08 02:51:54;;;;;;;;;;;;;;;19.64;32.74;102178.88;3100832;28;115538;-56
2021/03/08 02:53:26;;;;;;;;;;;;;;;19.62;32.56;102181.97;3102260;28;115702;-56
2021/03/08 02:54:59;;;;;;;;;;;;;;;19.61;32.72;102173.81;3106908;28;116033;-57
2021/03/08 02:56:33;;;;;;;;;;;;;;;19.59;32.53;102178.84;3106996;28;116269;-57
2021/03/08 02:58:05;;;;;;;;;;;;;;;19.59;32.50;102176.03;3106991;28;115564;-57
2021/03/08 02:59:39;;;;;;;;;;;;;;;19.57;32.70;102167.91;3116147;27;114569;-57
2021/03/08 03:01:11;;;;;;;;;;;;;;;19.53;32.57;102167.59;3123856;27;115794;-57
2021/03/08 03:02:44;;;;;;;;;;;;;;;19.54;32.63;102168.44;3118776;27;115871;-56
2021/03/08 03:04:18;;;;;;;;;;;;;;;19.53;32.67;102170.41;3109322;28;115822;-57
2021/03/08 03:05:49;;;;;;;;;;;;;;;19.52;32.65;102177.16;3119979;27;118016;-57
2021/03/08 03:07:21;;;;;;;;;;;;;;;19.50;32.56;102168.16;3123966;27;117375;-57
2021/03/08 03:08:54;;;;;;;;;;;;;;;19.50;32.58;102172.91;3124216;27;115828;-57
2021/03/08 03:10:28;;;;;;;;;;;;;;;19.49;32.77;102169.25;3124164;27;115716;-56
2021/03/08 03:11:59;;;;;;;;;;;;;;;19.48;32.59;102170.41;3112656;27;115907;-57
2021/03/08 03:13:31;;;;;;;;;;;;;;;19.49;32.62;102179.63;3103030;28;116812;-56
2021/03/08 03:15:04;;;;;;;;;;;;;;;19.46;32.50;102175.41;3094534;28;115005;-57
2021/03/08 03:16:36;;;;;;;;;;;;;;;19.47;32.51;102174.31;3118683;27;113806;-56
2021/03/08 03:18:09;;;;;;;;;;;;;;;19.44;32.71;102174.03;3121953;27;113852;-56
2021/03/08 03:19:44;;;;;;;;;;;;;;;19.44;32.52;102166.44;3110173;28;113755;-56
2021/03/08 03:21:16;;;;;;;;;;;;;;;19.44;32.53;102171.22;3117917;27;114100;-56
2021/03/08 03:22:49;;;;;;;;;;;;;;;19.41;32.78;102166.09;3113401;27;113762;-56
2021/03/08 03:24:23;;;;;;;;;;;;;;;19.38;32.53;102164.69;3108690;28;114881;-56
2021/03/08 03:25:56;;;;;;;;;;;;;;;19.38;32.82;102167.50;3118567;27;114019;-57
2021/03/08 03:27:28;;;;;;;;;;;;;;;19.36;32.70;102174.47;3119687;27;114196;-56
2021/03/08 03:29:01;;;;;;;;;;;;;;;19.36;32.73;102168.88;3120400;27;114036;-56
2021/03/08 03:30:35;;;;;;;;;;;;;;;19.35;32.65;102164.41;3122831;27;113847;-57
2021/03/08 03:32:06;;;;;;;;;;;;;;;19.36;32.61;102180.06;3120304;27;113966;-56
2021/03/08 03:33:38;;;;;;;;;;;;;;;19.36;32.69;102171.66;3107154;28;114553;-57
2021/03/08 03:35:10;;;;;;;;;;;;;;;19.35;32.62;102175.63;3094464;28;113943;-57
2021/03/08 03:36:43;;;;;;;;;;;;;;;19.37;32.53;102176.16;3097502;28;115135;-58
2021/03/08 03:38:18;;;;;;;;;;;;;;;19.36;32.85;102175.31;3106314;28;115055;-57
2021/03/08 03:39:49;;;;;;;;;;;;;;;19.35;32.86;102187.63;3117903;27;115351;-57
2021/03/08 03:41:20;;;;;;;;;;;;;;;19.34;33.08;102174.75;3122576;27;116248;-57
2021/03/08 03:42:52;;;;;;;;;;;;;;;19.32;32.95;102185.38;3124558;27;114221;-57
2021/03/08 03:44:23;;;;;;;;;;;;;;;19.32;33.00;102178.94;3124245;27;114956;-58
2021/03/08 03:45:54;;;;;;;;;;;;;;;19.29;32.80;102177.53;3123600;27;115329;-58
2021/03/08 03:47:25;;;;;;;;;;;;;;;19.28;33.16;102178.63;3123543;27;114992;-56
2021/03/08 03:48:58;;;;;;;;;;;;;;;19.26;33.11;102172.44;3120516;27;115222;-57
2021/03/08 03:50:29;;;;;;;;;;;;;;;19.26;33.08;102178.03;3110336;28;115089;-57
2021/03/08 03:52:01;;;;;;;;;;;;;;;19.25;33.35;102178.34;3106553;28;115820;-57
2021/03/08 03:53:32;;;;;;;;;;;;;;;19.25;33.13;102183.94;3106351;28;114171;-56
2021/03/08 03:55:04;;;;;;;;;;;;;;;19.22;33.04;102185.31;3092956;28;115132;-58
2021/03/08 03:56:35;;;;;;;;;;;;;;;19.24;33.17;102180.28;3114894;27;115107;-57
2021/03/08 03:58:07;;;;;;;;;;;;;;;19.23;33.09;102174.94;3109828;28;115834;-58
2021/03/08 03:59:42;;;;;;;;;;;;;;;19.21;33.25;102182.78;3118910;27;115713;-58
2021/03/08 04:01:18;;;;;;;;;;;;;;;19.19;33.13;102188.66;3109075;28;115645;-58
2021/03/08 04:02:56;;;;;;;;;;;;;;;19.19;33.15;102190.63;3118078;27;115788;-58
2021/03/08 04:04:30;;;;;;;;;;;;;;;19.17;33.17;102195.66;3121947;27;115712;-59
2021/03/08 04:06:01;;;;;;;;;;;;;;;19.18;33.17;102188.91;3105776;28;115036;-57
2021/03/08 04:07:33;;;;;;;;;;;;;;;19.17;33.19;102195.66;3118483;27;116282;-58
2021/03/08 04:09:05;;;;;;;;;;;;;;;19.14;33.13;102190.56;3107018;28;116145;-58
2021/03/08 04:10:38;;;;;;;;;;;;;;;19.13;33.29;102189.72;3118046;27;115668;-56
2021/03/08 04:12:09;;;;;;;;;;;;;;;19.14;33.15;102201.78;3109032;28;115947;-58
2021/03/08 04:13:42;;;;;;;;;;;;;;;19.11;33.35;102191.97;3118276;27;115117;-58
2021/03/08 04:15:14;;;;;;;;;;;;;;;19.12;33.43;102195.63;3118564;27;116134;-57
2021/03/08 04:16:48;;;;;;;;;;;;;;;19.10;33.42;102196.72;3122537;27;115898;-58
2021/03/08 04:18:20;;;;;;;;;;;;;;;19.10;33.53;102205.13;3125913;27;116767;-58
2021/03/08 04:19:52;;;;;;;;;;;;;;;19.08;33.45;102198.94;3104177;28;113859;-58
2021/03/08 04:21:24;;;;;;;;;;;;;;;19.08;33.30;102200.88;3103449;28;114011;-58
2021/03/08 04:22:57;;;;;;;;;;;;;;;19.07;33.39;102196.41;3106809;28;113911;-58
2021/03/08 04:24:30;;;;;;;;;;;;;;;19.03;33.48;102201.69;3116633;27;114048;-57
2021/03/08 04:26:02;;;;;;;;;;;;;;;19.05;33.54;102191.06;3095760;28;114271;-57
2021/03/08 04:27:33;;;;;;;;;;;;;;;19.03;33.47;102200.88;3101391;28;113884;-57
2021/03/08 04:29:05;;;;;;;;;;;;;;;19.02;33.53;102200.03;3114145;27;113635;-57
2021/03/08 04:30:37;;;;;;;;;;;;;;;19.02;33.56;102205.63;3122057;27;113757;-57
2021/03/08 04:32:09;;;;;;;;;;;;;;;19.00;33.46;102204.19;3119499;27;114214;-58
2021/03/08 04:33:42;;;;;;;;;;;;;;;18.98;33.49;102210.06;3119289;27;113861;-59
2021/03/08 04:35:14;;;;;;;;;;;;;;;18.99;33.47;102202.50;3122367;27;113702;-58
2021/03/08 04:36:45;;;;;;;;;;;;;;;19.00;33.53;102204.19;3106532;28;113770;-57
2021/03/08 04:38:17;;;;;;;;;;;;;;;18.97;33.58;102211.19;3115670;27;113768;-58
2021/03/08 04:39:49;;;;;;;;;;;;;;;18.96;33.65;102211.44;3118594;27;113824;-57
2021/03/08 04:41:21;;;;;;;;;;;;;;;18.93;33.52;102207.22;3108455;28;114055;-57
2021/03/08 04:42:53;;;;;;;;;;;;;;;18.93;33.54;102211.97;3109236;28;115109;-57
2021/03/08 04:44:25;;;;;;;;;;;;;;;18.92;33.68;102204.69;3114090;27;115376;-57
2021/03/08 04:45:56;;;;;;;;;;;;;;;18.92;33.59;102202.72;3108966;28;115300;-57
2021/03/08 04:47:28;;;;;;;;;;;;;;;18.92;33.71;102211.13;3118567;27;115221;-57
2021/03/08 04:49:00;;;;;;;;;;;;;;;18.91;33.67;102205.78;3107109;28;114973;-57
2021/03/08 04:50:32;;;;;;;;;;;;;;;18.91;33.60;102200.19;3095436;28;115172;-58
2021/03/08 04:52:06;;;;;;;;;;;;;;;18.88;33.73;102190.38;3117972;27;115315;-57
2021/03/08 04:53:37;;;;;;;;;;;;;;;18.90;33.68;102204.94;3124698;27;115336;-57
2021/03/08 04:55:09;;;;;;;;;;;;;;;18.88;33.76;102204.38;3122768;27;114466;-57
2021/03/08 04:56:40;;;;;;;;;;;;;;;18.85;33.91;102198.47;3109643;28;115287;-57
2021/03/08 04:58:12;;;;;;;;;;;;;;;18.85;33.78;102193.69;3105468;28;115125;-57
2021/03/08 04:59:43;;;;;;;;;;;;;;;18.84;33.95;102196.78;3120219;27;115084;-57
2021/03/08 05:01:14;;;;;;;;;;;;;;;18.82;34.02;102194.25;3124655;27;115263;-57
2021/03/08 05:02:47;;;;;;;;;;;;;;;18.83;33.94;102197.88;3111136;28;116684;-58
2021/03/08 05:04:20;;;;;;;;;;;;;;;18.83;33.91;102206.28;3120264;27;115833;-57
2021/03/08 05:05:52;;;;;;;;;;;;;;;18.84;34.04;102193.97;3124151;27;115895;-58
2021/03/08 05:07:24;;;;;;;;;;;;;;;18.89;34.06;102199.63;3123741;27;116473;-58
2021/03/08 05:08:56;;;;;;;;;;;;;;;18.91;34.07;102191.78;3121174;27;115556;-57
2021/03/08 05:10:28;;;;;;;;;;;;;;;18.92;34.05;102191.53;3124604;27;115221;-56
2021/03/08 05:12:00;;;;;;;;;;;;;;;18.92;34.17;102185.94;3110146;28;114654;-57
2021/03/08 05:13:31;;;;;;;;;;;;;;;18.93;34.24;102186.78;3104346;28;116218;-57
2021/03/08 05:15:05;;;;;;;;;;;;;;;18.92;34.19;102185.94;3106742;28;116080;-56
2021/03/08 05:16:39;;;;;;;;;;;;;;;18.92;34.14;102183.13;3117349;27;114713;-57
2021/03/08 05:18:11;;;;;;;;;;;;;;;18.93;34.21;102182.03;3124166;27;115048;-58
2021/03/08 05:19:43;;;;;;;;;;;;;;;18.95;34.43;102182.59;3109145;28;115524;-58
2021/03/08 05:21:15;;;;;;;;;;;;;;;18.99;34.40;102180.94;3120355;27;115689;-57
2021/03/08 05:22:46;;;;;;;;;;;;;;;19.02;34.24;102172.00;3121761;27;115800;-61
2021/03/08 05:24:17;;;;;;;;;;;;;;;19.03;34.30;102173.69;3128358;27;115913;-57
2021/03/08 05:25:49;;;;;;;;;;;;;;;19.05;34.37;102171.47;3120781;27;114739;-57
2021/03/08 05:27:21;;;;;;;;;;;;;;;19.08;34.44;102178.47;3109945;28;114299;-57
2021/03/08 05:28:54;;;;;;;;;;;;;;;19.10;34.51;102165.91;3120679;27;114109;-58
2021/03/08 05:30:27;;;;;;;;;;;;;;;19.13;34.58;102172.06;3110333;28;114019;-58
2021/03/08 05:32:09;;;;;;;;;;;;;;;19.16;34.58;102171.56;3105858;28;114355;-57
2021/03/08 05:33:42;;;;;;;;;;;;;;;19.19;34.63;102171.84;3119960;27;113810;-57
2021/03/08 05:35:15;;;;;;;;;;;;;;;19.24;34.57;102174.69;3108039;28;113820;-57
2021/03/08 05:36:48;;;;;;;;;;;;;;;19.27;34.79;102173.28;3105490;28;114203;-58
2021/03/08 05:38:21;;;;;;;;;;;;;;;19.32;35.11;102173.31;3118654;27;113936;-56
2021/03/08 05:39:55;;;;;;;;;;;;;;;19.37;34.99;102174.22;3124282;27;113889;-57
2021/03/08 05:41:36;;;;;;;;;;;;;;;19.41;34.72;102175.34;3122385;27;113754;-58
2021/03/08 05:43:10;;;;;;;;;;;;;;;19.46;34.43;102166.16;3123520;27;113973;-57
2021/03/08 05:44:47;;;;;;;;;;;;;;;19.51;35.08;102169.00;3122514;27;114508;-56
2021/03/08 05:46:28;;;;;;;;;;;;;;;19.55;34.73;102170.13;3127120;27;113908;-57
2021/03/08 05:48:19;;;;;;;;;;;;;;;19.60;34.73;102170.16;3110805;28;115027;-57
2021/03/08 05:50:00;;;;;;;;;;;;;;;19.65;34.77;102167.41;3102311;28;115696;-58
2021/03/08 05:51:51;;;;;;;;;;;;;;;19.70;34.80;102152.56;3124106;27;115263;-58
2021/03/08 05:53:23;;;;;;;;;;;;;;;19.75;34.69;102159.03;3113184;27;115177;-57
2021/03/08 05:54:55;;;;;;;;;;;;;;;19.81;34.22;102157.06;3123818;27;115758;-58
2021/03/08 05:56:31;;;;;;;;;;;;;;;19.85;34.38;102161.84;3119544;27;115545;-58
2021/03/08 05:58:03;;;;;;;;;;;;;;;19.89;34.43;102159.38;3121041;27;115207;-57
2021/03/08 05:59:36;;;;;;;;;;;;;;;19.95;34.27;102159.09;3125419;27;115207;-57
2021/03/08 06:01:17;;;;;;;;;;;;;;;19.99;34.03;102167.81;3116012;27;115098;-58
2021/03/08 06:02:49;;;;;;;;;;;;;;;20.03;34.07;102163.34;3120095;27;115210;-59
2021/03/08 06:04:30;;;;;;;;;;;;;;;20.07;33.88;102167.28;3121227;27;115131;-58
2021/03/08 06:06:10;;;;;;;;;;;;;;;20.12;33.89;102172.94;3124485;27;115212;-59
2021/03/08 06:07:42;;;;;;;;;;;;;;;20.17;33.83;102169.28;3111146;27;114458;-59
2021/03/08 06:09:23;;;;;;;;;;;;;;;20.21;33.77;102176.03;3121491;27;115580;-58
2021/03/08 06:11:04;;;;;;;;;;;;;;;20.25;33.53;102178.00;3118386;27;117388;-58
2021/03/08 06:12:36;;;;;;;;;;;;;;;20.31;34.04;102185.34;3116947;27;115951;-58
2021/03/08 06:14:07;;;;;;;;;;;;;;;20.34;33.71;102184.81;3123336;27;116178;-58
2021/03/08 06:15:41;;;;;;;;;;;;;;;20.38;33.41;102179.47;3100899;28;115808;-57
2021/03/08 06:17:14;;;;;;;;;;;;;;;20.41;33.73;102187.31;3108586;27;115879;-57
2021/03/08 06:18:46;;;;;;;;;;;;;;;20.44;33.72;102192.41;3113434;27;115812;-56
2021/03/08 06:20:18;;;;;;;;;;;;;;;20.49;33.52;102188.78;3108884;28;115984;-56
2021/03/08 06:21:49;;;;;;;;;;;;;;;20.53;33.26;102181.47;3100225;28;116260;-57
2021/03/08 06:23:20;;;;;;;;;;;;;;;20.56;33.46;102183.72;3103333;28;115763;-57
2021/03/08 06:24:52;;;;;;;;;;;;;;;20.60;33.62;102190.44;3099482;28;116112;-57
2021/03/08 06:26:25;;;;;;;;;;;;;;;20.62;33.24;102186.25;3110173;27;116041;-57
2021/03/08 06:27:56;;;;;;;;;;;;;;;20.67;33.18;102185.44;3113100;27;115801;-57
2021/03/08 06:29:29;;;;;;;;;;;;;;;20.69;33.33;102180.34;3097626;28;115959;-58
2021/03/08 06:31:00;;;;;;;;;;;;;;;20.73;33.24;102181.47;3107778;27;115683;-58
2021/03/08 06:32:51;;;;;;;;;;;;;;;20.76;32.84;102183.72;3126954;27;117467;-57
2021/03/08 06:34:22;;;;;;;;;;;;;;;20.80;33.21;102180.06;3123137;27;113733;-57
2021/03/08 06:35:54;;;;;;;;;;;;;;;20.81;32.95;102183.72;3110637;28;114040;-58
2021/03/08 06:37:26;;;;;;;;;;;;;;;20.85;33.16;102179.22;3120691;27;114519;-58
2021/03/08 06:38:57;;;;;;;;;;;;;;;20.89;33.06;102185.16;3110335;28;113779;-57
2021/03/08 06:40:28;;;;;;;;;;;;;;;20.91;33.03;102186.53;3112023;27;113620;-58
2021/03/08 06:42:00;;;;;;;;;;;;;;;20.94;32.99;102185.97;3118870;27;113892;-57
2021/03/08 06:43:31;;;;;;;;;;;;;;;20.97;32.80;102185.44;3091207;28;113915;-58
2021/03/08 06:45:03;;;;;;;;;;;;;;;20.99;32.67;102191.59;3113065;27;113895;-57
2021/03/08 06:46:34;;;;;;;;;;;;;;;21.03;32.86;102189.09;3121170;27;113830;-58
2021/03/08 06:48:06;;;;;;;;;;;;;;;21.05;32.63;102181.19;3108251;28;114048;-59
2021/03/08 06:49:37;;;;;;;;;;;;;;;21.06;32.69;102189.34;3117738;27;113984;-59
2021/03/08 06:51:09;;;;;;;;;;;;;;;21.08;32.55;102184.28;3105200;28;114549;-58
2021/03/08 06:52:43;;;;;;;;;;;;;;;21.11;32.71;102185.69;3114171;27;113928;-57
2021/03/08 06:54:16;;;;;;;;;;;;;;;21.14;32.87;102185.16;3126794;27;114137;-57
2021/03/08 06:55:47;;;;;;;;;;;;;;;21.16;32.71;102183.78;3124281;27;115124;-59
2021/03/08 06:57:22;;;;;;;;;;;;;;;21.19;32.99;102187.97;3119151;27;115236;-58
2021/03/08 06:59:03;;;;;;;;;;;;;;;21.21;32.66;102189.34;3107939;28;115208;-59
2021/03/08 07:00:34;;;;;;;;;;;;;;;21.23;32.36;102195.56;3108517;27;115456;-57
2021/03/08 07:02:05;;;;;;;;;;;;;;;21.26;32.33;102196.94;3099169;28;116603;-58
2021/03/08 07:03:37;;;;;;;;;;;;;;;21.29;32.30;102199.22;3119928;27;115264;-57
2021/03/08 07:05:10;;;;;;;;;;;;;;;21.30;32.22;102198.91;3123346;27;115445;-57
2021/03/08 07:06:41;;;;;;;;;;;;;;;21.34;32.46;102204.81;3122062;27;115072;-58
2021/03/08 07:08:21;;;;;;;;;;;;;;;21.36;32.35;102202.56;3123296;27;115923;-56
2021/03/08 07:09:53;;;;;;;;;;;;;;;21.40;32.41;102214.91;3121876;27;115108;-58
2021/03/08 07:11:25;;;;;;;;;;;;;;;21.43;32.37;102207.91;3106636;28;115223;-58
2021/03/08 07:13:00;;;;;;;;;;;;;;;21.46;32.51;102204.50;3117359;27;115226;-59
2021/03/08 07:14:32;;;;;;;;;;;;;;;21.48;32.58;102211.56;3107344;27;115671;-59
2021/03/08 07:16:03;;;;;;;;;;;;;;;21.50;32.71;102208.44;3113766;28;115298;-59
2021/03/08 07:17:36;;;;;;;;;;;;;;;21.53;32.57;102210.69;3116397;27;115735;-58
2021/03/08 07:19:10;;;;;;;;;;;;;;;21.54;32.06;102210.41;3112179;27;115933;-57
2021/03/08 07:20:41;;;;;;;;;;;;;;;21.58;32.18;102211.50;3121925;27;116344;-57
2021/03/08 07:22:12;;;;;;;;;;;;;;;21.60;32.33;102206.44;3123049;27;115658;-58
2021/03/08 07:23:44;;;;;;;;;;;;;;;21.62;32.14;102218.25;3120217;27;115762;-57
2021/03/08 07:25:25;;;;;;;;;;;;;;;21.65;32.35;102209.25;3109319;28;115955;-58
2021/03/08 07:26:56;;;;;;;;;;;;;;;21.67;32.38;102206.97;3117053;27;114666;-58
2021/03/08 07:28:27;;;;;;;;;;;;;;;21.69;32.25;102206.72;3119311;27;115834;-59
2021/03/08 07:30:05;;;;;;;;;;;;;;;21.71;31.90;102212.91;3118666;27;115861;-57
2021/03/08 07:31:38;;;;;;;;;;;;;;;21.73;32.13;102205.84;3105656;28;115991;-57
2021/03/08 07:33:11;;;;;;;;;;;;;;;21.76;32.26;102210.03;3102874;28;115817;-57
2021/03/08 07:34:44;;;;;;;;;;;;;;;21.78;32.18;102212.59;3118515;27;115856;-57
2021/03/08 07:36:15;;;;;;;;;;;;;;;21.79;31.90;102206.69;3098526;28;115842;-56
2021/03/08 07:37:47;;;;;;;;;;;;;;;21.81;32.10;102207.22;3107479;28;115814;-58
2021/03/08 07:39:18;;;;;;;;;;;;;;;21.84;31.95;102212.28;3098070;28;113949;-59
2021/03/08 07:40:50;;;;;;;;;;;;;;;21.87;31.97;102205.25;3104057;28;113792;-58
2021/03/08 07:42:22;;;;;;;;;;;;;;;21.91;32.23;102203.53;3116961;27;113842;-58
2021/03/08 07:44:05;;;;;;;;;;;;;;;21.91;32.40;102206.34;3123782;27;115240;-58
2021/03/08 07:45:39;;;;;;;;;;;;;;;21.93;32.09;102210.59;3100139;28;114204;-57
2021/03/08 07:47:19;;;;;;;;;;;;;;;21.95;32.40;102211.16;3111644;27;114433;-57
2021/03/08 07:48:50;;;;;;;;;;;;;;;21.98;32.74;102216.22;3121843;27;113790;-58
2021/03/08 07:50:24;;;;;;;;;;;;;;;22.01;32.41;102218.44;3109555;28;114340;-58
2021/03/08 07:52:05;;;;;;;;;;;;;;;22.04;32.22;102214.19;3106985;28;113734;-58